createdAt,value
2023-01-27T00:00:39.048Z,-1.38
2023-01-27T00:03:05.976Z,-1.34
2023-01-27T00:05:32.600Z,-1.49
2023-01-27T00:07:59.201Z,-1.45
2023-01-27T00:10:26.565Z,-1.44
2023-01-27T00:13:12.032Z,-1.49
2023-01-27T00:15:38.615Z,-1.42
2023-01-27T00:18:05.264Z,-1.52
2023-01-27T00:20:50.738Z,-1.50
2023-01-27T00:23:41.702Z,-1.52
2023-01-27T00:26:17.750Z,-1.45
2023-01-27T00:28:45.599Z,-1.46
2023-01-27T00:31:33.174Z,-1.49
2023-01-27T00:34:08.993Z,-1.55
2023-01-27T00:36:37.608Z,-1.64
2023-01-27T00:39:05.136Z,-1.63
2023-01-27T00:41:33.901Z,-1.61
2023-01-27T00:44:01.206Z,-1.45
2023-01-27T00:46:27.812Z,-1.57
2023-01-27T00:48:54.388Z,-1.51
2023-01-27T00:51:24.844Z,-1.46
2023-01-27T00:53:54.373Z,-1.41
2023-01-27T00:56:22.048Z,-1.34
2023-01-27T00:58:48.538Z,-1.37
2023-01-27T01:01:16.835Z,-1.48
2023-01-27T01:03:44.234Z,-1.52
2023-01-27T01:06:13.152Z,-1.45
2023-01-27T01:08:39.785Z,-1.40
2023-01-27T01:11:08.311Z,-1.31
2023-01-27T01:13:35.348Z,-1.34
2023-01-27T01:16:06.980Z,-1.27
2023-01-27T01:18:33.546Z,-1.38
2023-01-27T01:21:00.027Z,-1.36
2023-01-27T01:23:26.464Z,-1.41
2023-01-27T01:25:57.221Z,-1.48
2023-01-27T01:28:26.547Z,-1.59
2023-01-27T01:30:56.185Z,-1.53
2023-01-27T01:33:25.096Z,-1.48
2023-01-27T01:35:51.526Z,-1.39
2023-01-27T01:38:18.001Z,-1.47
2023-01-27T01:40:45.024Z,-1.52
2023-01-27T01:43:18.312Z,-1.45
2023-01-27T01:45:58.431Z,-1.46
2023-01-27T01:48:33.824Z,-1.65
2023-01-27T01:51:14.977Z,-1.54
2023-01-27T01:53:48.725Z,-1.56
2023-01-27T01:56:21.450Z,-1.51
2023-01-27T01:58:49.088Z,-1.42
2023-01-27T02:01:17.728Z,-1.34
2023-01-27T02:03:49.162Z,-1.48
2023-01-27T02:06:15.700Z,-1.65
2023-01-27T02:08:46.170Z,-1.53
2023-01-27T02:11:12.715Z,-1.61
2023-01-27T02:13:39.716Z,-1.60
2023-01-27T02:16:08.203Z,-1.52
2023-01-27T02:18:34.945Z,-1.55
2023-01-27T02:21:01.883Z,-1.57
2023-01-27T02:23:43.580Z,-1.60
2023-01-27T02:26:16.080Z,-1.64
2023-01-27T02:28:42.950Z,-1.59
2023-01-27T02:31:09.731Z,-1.54
2023-01-27T02:33:36.369Z,-1.54
2023-01-27T02:36:06.194Z,-1.41
2023-01-27T02:38:43.844Z,-1.51
2023-01-27T02:41:37.377Z,-1.45
2023-01-27T02:44:04.122Z,-1.43
2023-01-27T02:46:31.073Z,-1.51
2023-01-27T02:49:00.723Z,-1.60
2023-01-27T02:51:30.539Z,-1.54
2023-01-27T02:54:00.268Z,-1.49
2023-01-27T02:56:29.100Z,-1.53
2023-01-27T02:58:59.544Z,-1.45
2023-01-27T03:01:26.265Z,-1.66
2023-01-27T03:03:53.694Z,-1.52
2023-01-27T03:06:20.301Z,-1.52
2023-01-27T03:08:46.734Z,-1.62
2023-01-27T03:11:13.188Z,-1.49
2023-01-27T03:13:40.239Z,-1.48
2023-01-27T03:16:26.253Z,-1.53
2023-01-27T03:18:53.741Z,-1.42
2023-01-27T03:21:20.378Z,-1.48
2023-01-27T03:23:49.102Z,-1.33
2023-01-27T03:26:16.005Z,-1.31
2023-01-27T03:28:42.928Z,-1.35
2023-01-27T03:31:19.593Z,-1.22
2023-01-27T03:33:47.790Z,-1.20
2023-01-27T03:36:33.588Z,-1.23
2023-01-27T03:39:21.007Z,-1.18
2023-01-27T03:42:05.999Z,-1.14
2023-01-27T03:44:51.019Z,-1.15
2023-01-27T03:47:17.459Z,-1.03
2023-01-27T03:49:43.919Z,-0.98
2023-01-27T03:52:10.406Z,-0.99
2023-01-27T03:54:36.881Z,-1.01
2023-01-27T03:57:06.092Z,-0.94
2023-01-27T03:59:32.986Z,-1.01
2023-01-27T04:02:23.400Z,-1.04
2023-01-27T04:05:08.402Z,-0.88
2023-01-27T04:07:37.903Z,-0.80
2023-01-27T04:10:05.682Z,-0.85
2023-01-27T04:12:34.862Z,-0.76
2023-01-27T04:15:04.959Z,-0.71
2023-01-27T04:17:38.982Z,-0.63
2023-01-27T04:20:06.167Z,-0.62
2023-01-27T04:22:32.624Z,-0.62
2023-01-27T04:24:59.180Z,-0.51
2023-01-27T04:27:26.358Z,-0.45
2023-01-27T04:29:53.372Z,-0.38
2023-01-27T04:32:20.630Z,-0.41
2023-01-27T04:34:47.100Z,-0.39
2023-01-27T04:37:13.593Z,-0.44
2023-01-27T04:39:41.404Z,-0.46
2023-01-27T04:42:08.534Z,-0.57
2023-01-27T04:44:35.057Z,-0.59
2023-01-27T04:47:03.632Z,-0.68
2023-01-27T04:49:30.212Z,-0.69
2023-01-27T04:51:56.734Z,-0.75
2023-01-27T04:54:23.234Z,-0.77
2023-01-27T04:57:01.452Z,-0.73
2023-01-27T04:59:27.986Z,-0.74
2023-01-27T05:01:54.601Z,-0.67
2023-01-27T05:04:21.460Z,-0.69
2023-01-27T05:06:48.103Z,-0.62
2023-01-27T05:09:14.583Z,-0.62
2023-01-27T05:11:41.039Z,-0.52
2023-01-27T05:14:07.520Z,-0.46
2023-01-27T05:16:36.088Z,-0.33
2023-01-27T05:19:02.646Z,-0.30
2023-01-27T05:21:30.847Z,-0.42
2023-01-27T05:23:57.404Z,-0.48
2023-01-27T05:26:26.067Z,-0.43
2023-01-27T05:28:53.364Z,-0.54
2023-01-27T05:31:22.932Z,-0.51
2023-01-27T05:33:51.534Z,-0.54
2023-01-27T05:36:20.075Z,-0.46
2023-01-27T05:38:47.218Z,-0.59
2023-01-27T05:41:15.793Z,-0.32
2023-01-27T05:43:44.123Z,-0.33
2023-01-27T05:46:16.298Z,-0.30
2023-01-27T05:48:49.037Z,-0.42
2023-01-27T05:51:18.115Z,-0.30
2023-01-27T05:53:45.151Z,-0.29
2023-01-27T05:56:13.457Z,-0.33
2023-01-27T05:58:40.922Z,-0.31
2023-01-27T06:01:15.856Z,-0.36
2023-01-27T06:03:43.493Z,-0.33
2023-01-27T06:06:11.155Z,-0.29
2023-01-27T06:08:38.490Z,-0.38
2023-01-27T06:11:09.257Z,-0.27
2023-01-27T06:13:41.212Z,-0.23
2023-01-27T06:16:10.707Z,-0.21
2023-01-27T06:18:38.347Z,-0.15
2023-01-27T06:21:06.999Z,-0.26
2023-01-27T06:23:33.822Z,-0.26
2023-01-27T06:26:15.629Z,-0.20
2023-01-27T06:28:42.454Z,-0.23
2023-01-27T06:31:11.764Z,-0.13
2023-01-27T06:33:38.356Z,-0.13
2023-01-27T06:36:10.405Z,-0.13
2023-01-27T06:38:37.665Z,-0.18
2023-01-27T06:41:06.737Z,-0.16
2023-01-27T06:43:33.369Z,-0.18
2023-01-27T06:46:00.274Z,-0.11
2023-01-27T06:48:27.933Z,-0.26
2023-01-27T06:50:55.621Z,-0.36
2023-01-27T06:53:22.752Z,-0.24
2023-01-27T06:55:49.332Z,-0.51
2023-01-27T06:58:16.066Z,-0.28
2023-01-27T07:00:42.886Z,-0.35
2023-01-27T07:03:11.696Z,-0.27
2023-01-27T07:05:39.684Z,-0.17
2023-01-27T07:08:10.954Z,-0.31
2023-01-27T07:10:40.932Z,-0.24
2023-01-27T07:13:12.763Z,-0.16
2023-01-27T07:15:40.253Z,-0.37
2023-01-27T07:18:12.240Z,-0.18
2023-01-27T07:20:40.337Z,-0.28
2023-01-27T07:23:10.199Z,-0.35
2023-01-27T07:25:40.332Z,-0.29
2023-01-27T07:28:09.688Z,-0.17
2023-01-27T07:30:39.760Z,-0.07
2023-01-27T07:33:14.499Z,-0.11
2023-01-27T07:35:42.721Z,-0.16
2023-01-27T07:38:09.648Z,-0.20
2023-01-27T07:40:39.705Z,-0.21
2023-01-27T07:43:11.329Z,-0.28
2023-01-27T07:45:38.607Z,-0.34
2023-01-27T07:48:08.947Z,-0.39
2023-01-27T07:50:37.516Z,-0.25
2023-01-27T07:53:10.778Z,-0.49
2023-01-27T07:55:40.208Z,-0.36
2023-01-27T07:58:09.994Z,-0.18
2023-01-27T08:00:39.454Z,-0.13
2023-01-27T08:03:22.268Z,-0.21
2023-01-27T08:05:48.868Z,-0.28
2023-01-27T08:08:15.775Z,-0.27
2023-01-27T08:10:47.033Z,-0.20
2023-01-27T08:13:13.837Z,-0.11
2023-01-27T08:15:40.388Z,-0.24
2023-01-27T08:18:10.528Z,-0.35
2023-01-27T08:20:39.856Z,-0.27
2023-01-27T08:23:09.175Z,-0.21
2023-01-27T08:25:39.393Z,-0.42
2023-01-27T08:28:08.587Z,-0.33
2023-01-27T08:30:37.465Z,-0.21
2023-01-27T08:33:03.940Z,-0.05
2023-01-27T08:35:30.439Z,-0.11
2023-01-27T08:37:56.913Z,-0.13
2023-01-27T08:40:23.383Z,-0.08
2023-01-27T08:42:51.111Z,0.00
2023-01-27T08:45:17.623Z,0.10
2023-01-27T08:47:44.188Z,0.03
2023-01-27T08:50:11.380Z,0.00
2023-01-27T08:52:38.007Z,0.15
2023-01-27T08:55:07.131Z,0.10
2023-01-27T08:57:37.899Z,0.18
2023-01-27T09:00:11.427Z,0.10
2023-01-27T09:02:38.706Z,0.29
2023-01-27T09:05:09.452Z,0.32
2023-01-27T09:07:38.794Z,0.33
2023-01-27T09:10:15.135Z,0.31
2023-01-27T09:12:43.753Z,0.35
2023-01-27T09:15:11.241Z,0.35
2023-01-27T09:17:41.548Z,0.44
2023-01-27T09:20:11.754Z,0.50
2023-01-27T09:22:40.482Z,0.50
2023-01-27T09:25:09.329Z,0.45
2023-01-27T09:27:40.298Z,0.53
2023-01-27T09:30:09.724Z,0.49
2023-01-27T09:32:40.109Z,0.61
2023-01-27T09:35:10.541Z,0.72
2023-01-27T09:37:50.452Z,0.64
2023-01-27T09:41:02.442Z,0.74
2023-01-27T09:44:11.143Z,0.76
2023-01-27T09:47:15.384Z,0.74
2023-01-27T09:50:11.697Z,0.80
2023-01-27T09:52:47.925Z,0.84
2023-01-27T09:55:45.579Z,0.82
2023-01-27T09:58:38.166Z,0.97
2023-01-27T10:01:09.889Z,1.03
2023-01-27T10:03:57.875Z,1.06
2023-01-27T10:06:34.788Z,1.07
2023-01-27T10:09:13.937Z,1.19
2023-01-27T10:11:49.072Z,1.23
2023-01-27T10:14:19.521Z,1.24
2023-01-27T10:17:21.526Z,1.24
2023-01-27T10:20:10.589Z,1.23
2023-01-27T10:22:51.403Z,1.29
2023-01-27T10:25:38.716Z,1.27
2023-01-27T10:28:12.664Z,1.10
2023-01-27T10:30:47.364Z,1.22
2023-01-27T10:33:22.702Z,1.29
2023-01-27T10:35:56.386Z,1.38
2023-01-27T10:38:54.195Z,1.42
2023-01-27T10:41:31.938Z,1.18
2023-01-27T10:44:26.488Z,1.34
2023-01-27T10:47:09.967Z,1.01
2023-01-27T10:49:46.811Z,1.24
2023-01-27T10:52:16.860Z,1.28
2023-01-27T10:55:08.433Z,1.43
2023-01-27T10:57:58.670Z,1.56
2023-01-27T11:01:13.271Z,1.57
2023-01-27T11:03:49.796Z,1.31
2023-01-27T11:06:23.682Z,1.63
2023-01-27T11:09:21.030Z,1.65
2023-01-27T11:11:49.631Z,1.57
2023-01-27T11:14:19.442Z,1.62
2023-01-27T11:16:50.589Z,1.55
2023-01-27T11:19:32.906Z,1.44
2023-01-27T11:22:10.281Z,1.37
2023-01-27T11:24:47.164Z,1.51
2023-01-27T11:27:18.154Z,1.48
2023-01-27T11:30:03.895Z,1.62
2023-01-27T11:32:53.504Z,1.73
2023-01-27T11:35:20.201Z,1.84
2023-01-27T11:37:50.544Z,1.78
2023-01-27T11:40:27.670Z,1.84
2023-01-27T11:42:57.994Z,1.88
2023-01-27T11:45:25.378Z,1.95
2023-01-27T11:47:56.989Z,1.93
2023-01-27T11:50:28.808Z,1.87
2023-01-27T11:53:07.965Z,1.91
2023-01-27T11:55:40.284Z,1.93
2023-01-27T11:58:15.834Z,1.97
2023-01-27T12:00:51.664Z,1.83
2023-01-27T12:03:29.148Z,1.90
2023-01-27T12:06:00.092Z,1.94
2023-01-27T12:08:46.294Z,2.00
2023-01-27T12:11:40.366Z,2.01
2023-01-27T12:14:13.388Z,1.94
2023-01-27T12:16:50.331Z,1.87
2023-01-27T12:19:22.188Z,1.91
2023-01-27T12:21:52.519Z,1.89
2023-01-27T12:24:31.893Z,1.98
2023-01-27T12:27:00.376Z,1.92
2023-01-27T12:29:43.054Z,1.93
2023-01-27T12:32:20.938Z,2.12
2023-01-27T12:34:52.030Z,2.10
2023-01-27T12:37:33.743Z,2.16
2023-01-27T12:40:07.572Z,2.24
2023-01-27T12:42:42.873Z,2.17
2023-01-27T12:45:22.087Z,2.09
2023-01-27T12:48:14.953Z,2.11
2023-01-27T12:50:50.375Z,2.11
2023-01-27T12:53:22.565Z,2.25
2023-01-27T12:56:10.005Z,2.28
2023-01-27T12:58:39.109Z,2.34
2023-01-27T13:01:20.652Z,2.02
2023-01-27T13:03:57.561Z,2.19
2023-01-27T13:06:42.500Z,2.22
2023-01-27T13:09:23.981Z,2.19
2023-01-27T13:11:50.453Z,2.13
2023-01-27T13:14:18.041Z,2.34
2023-01-27T13:17:49.088Z,2.33
2023-01-27T13:20:24.878Z,2.37
2023-01-27T13:23:21.110Z,2.30
2023-01-27T13:25:54.650Z,2.04
2023-01-27T13:28:50.201Z,2.06
2023-01-27T13:31:35.566Z,2.01
2023-01-27T13:34:15.355Z,1.87
2023-01-27T13:37:08.492Z,1.93
2023-01-27T13:39:45.296Z,1.96
2023-01-27T13:42:23.397Z,1.95
2023-01-27T13:45:22.572Z,1.98
2023-01-27T13:47:55.205Z,1.95
2023-01-27T13:50:41.549Z,1.98
2023-01-27T13:53:18.569Z,1.97
2023-01-27T13:56:09.634Z,2.00
2023-01-27T13:58:39.225Z,1.99
2023-01-27T14:01:15.699Z,2.07
2023-01-27T14:03:48.180Z,2.00
2023-01-27T14:06:26.876Z,2.04
2023-01-27T14:09:06.878Z,1.97
2023-01-27T14:12:01.677Z,1.94
2023-01-27T14:14:56.124Z,1.76
2023-01-27T14:17:40.490Z,1.79
2023-01-27T14:20:33.316Z,1.97
2023-01-27T14:23:29.622Z,2.14
2023-01-27T14:26:12.158Z,2.23
2023-01-27T14:28:44.702Z,2.23
2023-01-27T14:31:16.642Z,2.19
2023-01-27T14:34:07.519Z,2.30
2023-01-27T14:36:58.358Z,2.46
2023-01-27T14:39:33.726Z,2.48
2023-01-27T14:42:11.390Z,2.55
2023-01-27T14:45:06.140Z,2.52
2023-01-27T14:47:57.183Z,2.36
2023-01-27T14:50:28.058Z,2.41
2023-01-27T14:53:12.863Z,2.55
2023-01-27T14:55:55.391Z,2.41
2023-01-27T14:58:40.192Z,2.41
2023-01-27T15:01:32.680Z,2.42
2023-01-27T15:04:25.593Z,2.42
2023-01-27T15:07:11.307Z,2.38
2023-01-27T15:10:10.497Z,2.41
2023-01-27T15:12:36.947Z,2.35
2023-01-27T15:15:29.964Z,2.25
2023-01-27T15:18:18.023Z,2.32
2023-01-27T15:21:15.947Z,2.36
2023-01-27T15:24:00.905Z,2.39
2023-01-27T15:26:30.634Z,2.46
2023-01-27T15:28:59.883Z,2.22
2023-01-27T15:31:29.141Z,2.18
2023-01-27T15:34:15.677Z,2.31
2023-01-27T15:37:03.641Z,2.34
2023-01-27T15:39:40.885Z,2.22
2023-01-27T15:42:12.727Z,2.21
2023-01-27T15:44:58.530Z,2.26
2023-01-27T15:47:27.102Z,2.31
2023-01-27T15:50:10.673Z,2.29
2023-01-27T15:52:46.141Z,1.98
2023-01-27T15:55:48.026Z,1.87
2023-01-27T15:58:28.733Z,2.29
2023-01-27T16:00:57.631Z,2.23
2023-01-27T16:03:32.439Z,2.20
2023-01-27T16:06:12.298Z,2.29
2023-01-27T16:08:48.772Z,2.27
2023-01-27T16:11:27.256Z,2.24
2023-01-27T16:14:19.772Z,2.25
2023-01-27T16:17:03.532Z,2.16
2023-01-27T16:19:40.881Z,2.20
2023-01-27T16:22:14.082Z,2.22
2023-01-27T16:24:45.688Z,2.23
2023-01-27T16:27:33.709Z,2.31
2023-01-27T16:30:18.223Z,2.26
2023-01-27T16:33:06.312Z,2.16
2023-01-27T16:35:48.588Z,2.11
2023-01-27T16:38:33.152Z,2.06
2023-01-27T16:41:15.589Z,2.14
2023-01-27T16:43:51.487Z,2.08
2023-01-27T16:46:32.775Z,2.00
2023-01-27T16:49:04.823Z,1.90
2023-01-27T16:51:32.687Z,2.09
2023-01-27T16:54:10.391Z,1.96
2023-01-27T16:56:37.783Z,1.93
2023-01-27T16:59:12.326Z,1.99
2023-01-27T17:01:59.809Z,1.78
2023-01-27T17:04:28.651Z,1.79
2023-01-27T17:07:06.675Z,1.78
2023-01-27T17:09:57.724Z,1.74
2023-01-27T17:12:46.022Z,1.65
2023-01-27T17:15:20.741Z,1.60
2023-01-27T17:17:49.965Z,1.55
2023-01-27T17:20:23.847Z,1.54
2023-01-27T17:22:54.338Z,1.48
2023-01-27T17:25:30.613Z,1.48
2023-01-27T17:28:00.432Z,1.47
2023-01-27T17:30:33.697Z,1.39
2023-01-27T17:33:06.789Z,1.64
2023-01-27T17:35:36.696Z,1.56
2023-01-27T17:38:25.990Z,1.59
2023-01-27T17:40:54.967Z,1.54
2023-01-27T17:43:36.306Z,1.52
2023-01-27T17:46:05.900Z,1.60
2023-01-27T17:48:34.994Z,1.61
2023-01-27T17:51:01.711Z,1.53
2023-01-27T17:53:28.519Z,1.59
2023-01-27T17:55:55.686Z,1.60
2023-01-27T17:58:29.455Z,1.58
2023-01-27T18:00:56.916Z,1.54
2023-01-27T18:03:29.739Z,1.46
2023-01-27T18:05:56.840Z,1.38
2023-01-27T18:08:26.288Z,1.34
2023-01-27T18:11:20.682Z,1.34
2023-01-27T18:13:52.994Z,1.39
2023-01-27T18:16:21.539Z,1.33
2023-01-27T18:18:49.683Z,1.24
2023-01-27T18:21:23.462Z,1.27
2023-01-27T18:23:55.789Z,1.30
2023-01-27T18:26:30.299Z,1.32
2023-01-27T18:29:01.245Z,1.31
2023-01-27T18:31:35.049Z,1.24
2023-01-27T18:34:21.026Z,1.20
2023-01-27T18:37:01.158Z,1.24
2023-01-27T18:39:39.880Z,1.13
2023-01-27T18:42:12.951Z,1.36
2023-01-27T18:44:42.452Z,1.23
2023-01-27T18:47:18.227Z,1.34
2023-01-27T18:49:51.681Z,1.19
2023-01-27T18:52:18.235Z,1.11
2023-01-27T18:54:47.080Z,1.13
2023-01-27T18:57:13.577Z,1.08
2023-01-27T18:59:43.153Z,0.95
2023-01-27T19:02:15.830Z,1.08
2023-01-27T19:04:46.257Z,1.02
2023-01-27T19:07:18.013Z,1.14
2023-01-27T19:09:46.747Z,1.11
2023-01-27T19:12:13.540Z,1.13
2023-01-27T19:14:42.060Z,1.19
2023-01-27T19:17:50.407Z,1.26
2023-01-27T19:21:05.645Z,1.13
2023-01-27T19:23:22.554Z,1.12
2023-01-27T19:26:20.070Z,1.13
2023-01-27T19:28:51.258Z,1.00
2023-01-27T19:37:28.920Z,1.21
2023-01-27T19:39:55.483Z,1.05
2023-01-27T19:42:21.924Z,1.12
2023-01-27T19:44:48.409Z,1.06
2023-01-27T19:47:14.908Z,1.22
2023-01-27T19:49:44.516Z,1.11
2023-01-27T19:52:13.516Z,1.16
2023-01-27T19:54:42.925Z,1.05
2023-01-27T19:57:16.508Z,0.90
2023-01-27T19:59:45.674Z,1.19
2023-01-27T20:02:13.630Z,1.18
2023-01-27T20:04:43.675Z,1.11
2023-01-27T20:07:13.223Z,1.04
2023-01-27T20:09:42.812Z,1.13
2023-01-27T20:12:15.849Z,1.13
2023-01-27T20:14:44.008Z,1.11
2023-01-27T20:17:11.373Z,1.07
2023-01-27T20:19:37.832Z,1.05
2023-01-27T20:22:04.262Z,0.89
2023-01-27T20:24:30.741Z,1.17
2023-01-27T20:26:58.525Z,1.06
2023-01-27T20:29:25.057Z,1.16
2023-01-27T20:31:52.762Z,1.02
2023-01-27T20:34:19.377Z,1.17
2023-01-27T20:36:45.821Z,1.03
2023-01-27T20:39:12.674Z,1.17
2023-01-27T20:41:42.776Z,1.20
2023-01-27T20:44:12.488Z,1.17
2023-01-27T20:46:42.859Z,1.18
2023-01-27T20:49:12.349Z,1.20
2023-01-27T20:51:41.897Z,1.18
2023-01-27T20:54:11.705Z,1.18
2023-01-27T20:56:39.646Z,0.96
2023-01-27T20:59:06.345Z,1.06
2023-01-27T21:01:33.291Z,0.93
2023-01-27T21:03:59.936Z,1.04
2023-01-27T21:06:26.592Z,1.07
2023-01-27T21:08:53.079Z,1.13
2023-01-27T21:11:21.379Z,1.17
2023-01-27T21:13:48.805Z,1.14
2023-01-27T21:16:15.389Z,1.07
2023-01-27T21:18:42.069Z,1.10
2023-01-27T21:21:22.058Z,1.05
2023-01-27T21:23:48.569Z,1.02
2023-01-27T21:26:15.082Z,1.06
2023-01-27T21:28:41.564Z,0.96
2023-01-27T21:31:16.437Z,1.08
2023-01-27T21:33:45.749Z,1.14
2023-01-27T21:36:12.605Z,1.14
2023-01-27T21:38:42.348Z,0.99
2023-01-27T21:41:35.823Z,0.96
2023-01-27T21:44:21.414Z,0.88
2023-01-27T21:46:48.032Z,1.01
2023-01-27T21:49:14.889Z,0.89
2023-01-27T21:51:44.391Z,0.91
2023-01-27T21:54:14.075Z,0.99
2023-01-27T21:56:44.623Z,1.00
2023-01-27T21:59:14.559Z,1.09
2023-01-27T22:01:44.494Z,0.94
2023-01-27T22:04:18.435Z,0.85
2023-01-27T22:06:44.929Z,0.84
2023-01-27T22:09:15.963Z,0.90
2023-01-27T22:11:45.466Z,0.83
2023-01-27T22:14:15.952Z,0.94
2023-01-27T22:16:45.918Z,0.83
2023-01-27T22:19:16.025Z,0.76
2023-01-27T22:21:45.986Z,0.74
2023-01-27T22:24:15.911Z,0.82
2023-01-27T22:26:46.345Z,0.95
2023-01-27T22:29:16.453Z,0.95
2023-01-27T22:31:46.118Z,0.94
2023-01-27T22:34:16.533Z,0.98
2023-01-27T22:36:46.297Z,0.94
2023-01-27T22:39:14.087Z,0.96
2023-01-27T22:41:40.526Z,0.98
2023-01-27T22:44:07.488Z,1.03
2023-01-27T22:46:33.952Z,0.91
2023-01-27T22:49:00.430Z,0.89
2023-01-27T22:51:26.913Z,0.89
2023-01-27T22:53:53.444Z,0.94
2023-01-27T22:56:20.176Z,0.89
2023-01-27T22:58:46.744Z,0.83
2023-01-27T23:01:16.693Z,0.88
2023-01-27T23:03:47.119Z,0.78
2023-01-27T23:06:16.744Z,0.85
2023-01-27T23:08:45.513Z,0.77
2023-01-27T23:11:12.354Z,0.83
2023-01-27T23:13:39.018Z,0.78
2023-01-27T23:16:05.877Z,0.99
2023-01-27T23:18:33.047Z,0.91
2023-01-27T23:21:05.198Z,0.91
2023-01-27T23:23:31.860Z,0.81
2023-01-27T23:25:58.556Z,0.68
2023-01-27T23:28:25.816Z,0.71
2023-01-27T23:30:52.453Z,0.57
2023-01-27T23:33:20.106Z,0.69
2023-01-27T23:35:47.439Z,0.64
2023-01-27T23:38:30.344Z,0.58
2023-01-27T23:41:02.918Z,0.62
2023-01-27T23:43:31.082Z,0.73
2023-01-27T23:45:58.077Z,0.73
2023-01-27T23:48:24.835Z,0.69
2023-01-27T23:50:51.415Z,0.72
2023-01-27T23:53:18.356Z,0.70
2023-01-27T23:55:44.953Z,0.69
2023-01-27T23:58:11.450Z,0.53
